sensor_id;sensor_type;location;lat;lon;timestamp;P1;durP1;ratioP1;P2;durP2;ratioP2
29240;SDS011;16268;49.880;8.648;2023-02-18T00:00:14;7.28;;;5.60;;
29240;SDS011;16268;49.880;8.648;2023-02-18T00:02:42;7.57;;;6.20;;
29240;SDS011;16268;49.880;8.648;2023-02-18T00:05:08;7.18;;;5.50;;
29240;SDS011;16268;49.880;8.648;2023-02-18T00:07:35;7.25;;;5.80;;
29240;SDS011;16268;49.880;8.648;2023-02-18T00:10:03;8.30;;;6.25;;
29240;SDS011;16268;49.880;8.648;2023-02-18T00:12:30;6.80;;;5.30;;
29240;SDS011;16268;49.880;8.648;2023-02-18T00:14:56;7.30;;;5.65;;
29240;SDS011;16268;49.880;8.648;2023-02-18T00:17:21;7.68;;;5.80;;
29240;SDS011;16268;49.880;8.648;2023-02-18T00:19:47;7.35;;;5.70;;
29240;SDS011;16268;49.880;8.648;2023-02-18T00:22:13;8.25;;;6.38;;
29240;SDS011;16268;49.880;8.648;2023-02-18T00:24:38;8.52;;;6.45;;
29240;SDS011;16268;49.880;8.648;2023-02-18T00:27:04;7.90;;;6.03;;
29240;SDS011;16268;49.880;8.648;2023-02-18T00:29:29;10.18;;;6.85;;
29240;SDS011;16268;49.880;8.648;2023-02-18T00:31:55;8.35;;;6.55;;
29240;SDS011;16268;49.880;8.648;2023-02-18T00:34:21;9.20;;;6.75;;
29240;SDS011;16268;49.880;8.648;2023-02-18T00:36:46;7.70;;;6.35;;
29240;SDS011;16268;49.880;8.648;2023-02-18T00:39:12;8.90;;;6.72;;
29240;SDS011;16268;49.880;8.648;2023-02-18T00:41:38;9.25;;;7.53;;
29240;SDS011;16268;49.880;8.648;2023-02-18T00:44:03;9.52;;;7.35;;
29240;SDS011;16268;49.880;8.648;2023-02-18T00:46:31;9.05;;;7.22;;
29240;SDS011;16268;49.880;8.648;2023-02-18T00:48:56;7.80;;;6.65;;
29240;SDS011;16268;49.880;8.648;2023-02-18T00:51:22;9.60;;;7.75;;
29240;SDS011;16268;49.880;8.648;2023-02-18T00:53:49;8.98;;;7.35;;
29240;SDS011;16268;49.880;8.648;2023-02-18T00:56:15;9.68;;;7.30;;
29240;SDS011;16268;49.880;8.648;2023-02-18T00:58:40;9.23;;;7.60;;
29240;SDS011;16268;49.880;8.648;2023-02-18T01:01:07;10.68;;;7.95;;
29240;SDS011;16268;49.880;8.648;2023-02-18T01:03:34;10.68;;;8.60;;
29240;SDS011;16268;49.880;8.648;2023-02-18T01:06:00;9.70;;;7.88;;
29240;SDS011;16268;49.880;8.648;2023-02-18T01:08:26;11.07;;;8.55;;
29240;SDS011;16268;49.880;8.648;2023-02-18T01:10:53;10.90;;;8.40;;
29240;SDS011;16268;49.880;8.648;2023-02-18T01:13:21;9.65;;;7.65;;
29240;SDS011;16268;49.880;8.648;2023-02-18T01:15:50;10.88;;;9.25;;
29240;SDS011;16268;49.880;8.648;2023-02-18T01:18:16;11.43;;;9.05;;
29240;SDS011;16268;49.880;8.648;2023-02-18T01:20:43;10.23;;;8.10;;
29240;SDS011;16268;49.880;8.648;2023-02-18T01:23:09;12.80;;;9.25;;
29240;SDS011;16268;49.880;8.648;2023-02-18T01:25:35;11.85;;;9.63;;
29240;SDS011;16268;49.880;8.648;2023-02-18T01:28:02;12.95;;;9.75;;
29240;SDS011;16268;49.880;8.648;2023-02-18T01:30:28;13.82;;;9.73;;
29240;SDS011;16268;49.880;8.648;2023-02-18T01:32:54;12.57;;;9.63;;
29240;SDS011;16268;49.880;8.648;2023-02-18T01:35:21;11.82;;;9.02;;
29240;SDS011;16268;49.880;8.648;2023-02-18T01:37:48;10.77;;;8.73;;
29240;SDS011;16268;49.880;8.648;2023-02-18T01:40:14;10.30;;;8.05;;
29240;SDS011;16268;49.880;8.648;2023-02-18T01:42:42;10.55;;;8.43;;
29240;SDS011;16268;49.880;8.648;2023-02-18T01:48:32;9.93;;;7.63;;
29240;SDS011;16268;49.880;8.648;2023-02-18T01:51:07;9.48;;;7.50;;
29240;SDS011;16268;49.880;8.648;2023-02-18T01:56:32;8.95;;;5.88;;
29240;SDS011;16268;49.880;8.648;2023-02-18T01:59:05;8.52;;;6.53;;
29240;SDS011;16268;49.880;8.648;2023-02-18T02:01:35;8.73;;;6.75;;
29240;SDS011;16268;49.880;8.648;2023-02-18T02:04:01;8.10;;;6.47;;
29240;SDS011;16268;49.880;8.648;2023-02-18T02:06:27;8.70;;;6.07;;
29240;SDS011;16268;49.880;8.648;2023-02-18T02:08:54;8.00;;;5.68;;
29240;SDS011;16268;49.880;8.648;2023-02-18T02:14:32;8.32;;;5.45;;
29240;SDS011;16268;49.880;8.648;2023-02-18T02:17:56;8.80;;;6.70;;
29240;SDS011;16268;49.880;8.648;2023-02-18T02:20:05;7.95;;;6.28;;
29240;SDS011;16268;49.880;8.648;2023-02-18T02:23:00;9.73;;;7.35;;
29240;SDS011;16268;49.880;8.648;2023-02-18T02:34:37;9.82;;;8.05;;
29240;SDS011;16268;49.880;8.648;2023-02-18T02:45:25;10.88;;;8.13;;
29240;SDS011;16268;49.880;8.648;2023-02-18T02:51:02;10.45;;;8.80;;
29240;SDS011;16268;49.880;8.648;2023-02-18T02:53:33;13.45;;;9.00;;
29240;SDS011;16268;49.880;8.648;2023-02-18T02:56:01;10.40;;;8.52;;
29240;SDS011;16268;49.880;8.648;2023-02-18T02:58:28;10.93;;;8.35;;
29240;SDS011;16268;49.880;8.648;2023-02-18T03:14:51;12.63;;;7.72;;
29240;SDS011;16268;49.880;8.648;2023-02-18T03:17:25;10.45;;;8.35;;
29240;SDS011;16268;49.880;8.648;2023-02-18T03:19:58;10.95;;;8.75;;
29240;SDS011;16268;49.880;8.648;2023-02-18T03:22:36;11.68;;;8.70;;
29240;SDS011;16268;49.880;8.648;2023-02-18T03:25:05;11.02;;;8.25;;
29240;SDS011;16268;49.880;8.648;2023-02-18T03:27:34;11.23;;;8.30;;
29240;SDS011;16268;49.880;8.648;2023-02-18T03:30:21;10.90;;;8.13;;
29240;SDS011;16268;49.880;8.648;2023-02-18T03:32:52;9.43;;;7.80;;
29240;SDS011;16268;49.880;8.648;2023-02-18T03:35:22;9.05;;;7.70;;
29240;SDS011;16268;49.880;8.648;2023-02-18T03:40:51;9.57;;;6.78;;
29240;SDS011;16268;49.880;8.648;2023-02-18T03:43:17;8.23;;;6.90;;
29240;SDS011;16268;49.880;8.648;2023-02-18T03:45:43;9.55;;;6.80;;
29240;SDS011;16268;49.880;8.648;2023-02-18T03:48:08;10.23;;;7.65;;
29240;SDS011;16268;49.880;8.648;2023-02-18T03:50:35;10.25;;;7.57;;
29240;SDS011;16268;49.880;8.648;2023-02-18T03:53:00;9.13;;;7.30;;
29240;SDS011;16268;49.880;8.648;2023-02-18T03:55:26;10.77;;;7.78;;
29240;SDS011;16268;49.880;8.648;2023-02-18T03:57:52;10.52;;;7.93;;
29240;SDS011;16268;49.880;8.648;2023-02-18T04:00:18;9.18;;;7.75;;
29240;SDS011;16268;49.880;8.648;2023-02-18T04:02:44;9.38;;;8.00;;
29240;SDS011;16268;49.880;8.648;2023-02-18T04:05:10;9.68;;;7.68;;
29240;SDS011;16268;49.880;8.648;2023-02-18T04:07:36;9.80;;;7.10;;
29240;SDS011;16268;49.880;8.648;2023-02-18T04:10:01;9.52;;;7.22;;
29240;SDS011;16268;49.880;8.648;2023-02-18T04:12:27;9.73;;;6.90;;
29240;SDS011;16268;49.880;8.648;2023-02-18T04:14:53;10.05;;;7.15;;
29240;SDS011;16268;49.880;8.648;2023-02-18T04:17:19;10.23;;;6.63;;
29240;SDS011;16268;49.880;8.648;2023-02-18T04:19:44;7.75;;;5.28;;
29240;SDS011;16268;49.880;8.648;2023-02-18T04:22:10;6.97;;;5.00;;
29240;SDS011;16268;49.880;8.648;2023-02-18T04:24:35;8.52;;;4.68;;
29240;SDS011;16268;49.880;8.648;2023-02-18T04:27:01;5.53;;;3.92;;
29240;SDS011;16268;49.880;8.648;2023-02-18T04:29:26;6.13;;;3.55;;
29240;SDS011;16268;49.880;8.648;2023-02-18T04:31:52;6.55;;;3.80;;
29240;SDS011;16268;49.880;8.648;2023-02-18T04:34:18;5.82;;;3.60;;
29240;SDS011;16268;49.880;8.648;2023-02-18T04:36:43;5.03;;;3.53;;
29240;SDS011;16268;49.880;8.648;2023-02-18T04:39:09;6.57;;;4.30;;
29240;SDS011;16268;49.880;8.648;2023-02-18T04:41:34;6.75;;;4.43;;
29240;SDS011;16268;49.880;8.648;2023-02-18T04:44:00;8.73;;;5.78;;
29240;SDS011;16268;49.880;8.648;2023-02-18T04:46:25;8.77;;;5.97;;
29240;SDS011;16268;49.880;8.648;2023-02-18T04:48:51;7.55;;;5.60;;
29240;SDS011;16268;49.880;8.648;2023-02-18T04:51:17;8.25;;;6.18;;
29240;SDS011;16268;49.880;8.648;2023-02-18T04:53:42;9.02;;;5.97;;
29240;SDS011;16268;49.880;8.648;2023-02-18T04:56:08;8.85;;;6.63;;
29240;SDS011;16268;49.880;8.648;2023-02-18T04:58:33;10.88;;;6.65;;
29240;SDS011;16268;49.880;8.648;2023-02-18T05:01:02;11.27;;;7.40;;
29240;SDS011;16268;49.880;8.648;2023-02-18T05:03:28;11.60;;;7.65;;
29240;SDS011;16268;49.880;8.648;2023-02-18T05:05:54;10.40;;;7.47;;
29240;SDS011;16268;49.880;8.648;2023-02-18T05:08:20;12.57;;;8.77;;
29240;SDS011;16268;49.880;8.648;2023-02-18T05:10:45;12.73;;;8.35;;
29240;SDS011;16268;49.880;8.648;2023-02-18T05:13:11;12.13;;;8.55;;
29240;SDS011;16268;49.880;8.648;2023-02-18T05:15:37;12.02;;;8.73;;
29240;SDS011;16268;49.880;8.648;2023-02-18T05:18:02;13.10;;;8.52;;
29240;SDS011;16268;49.880;8.648;2023-02-18T05:20:28;10.25;;;7.97;;
29240;SDS011;16268;49.880;8.648;2023-02-18T05:22:54;11.30;;;7.95;;
29240;SDS011;16268;49.880;8.648;2023-02-18T05:25:20;9.07;;;6.95;;
29240;SDS011;16268;49.880;8.648;2023-02-18T05:27:45;9.80;;;7.10;;
29240;SDS011;16268;49.880;8.648;2023-02-18T05:30:11;10.02;;;6.75;;
29240;SDS011;16268;49.880;8.648;2023-02-18T05:32:37;8.25;;;5.63;;
29240;SDS011;16268;49.880;8.648;2023-02-18T05:35:03;7.40;;;5.85;;
29240;SDS011;16268;49.880;8.648;2023-02-18T05:37:29;8.20;;;5.85;;
29240;SDS011;16268;49.880;8.648;2023-02-18T05:39:54;7.30;;;5.30;;
29240;SDS011;16268;49.880;8.648;2023-02-18T05:42:20;7.40;;;5.07;;
29240;SDS011;16268;49.880;8.648;2023-02-18T05:44:47;6.60;;;4.88;;
29240;SDS011;16268;49.880;8.648;2023-02-18T05:47:12;7.82;;;5.07;;
29240;SDS011;16268;49.880;8.648;2023-02-18T05:49:39;7.03;;;4.68;;
29240;SDS011;16268;49.880;8.648;2023-02-18T05:52:06;7.85;;;4.40;;
29240;SDS011;16268;49.880;8.648;2023-02-18T05:54:32;7.22;;;4.93;;
29240;SDS011;16268;49.880;8.648;2023-02-18T05:56:58;7.85;;;4.45;;
29240;SDS011;16268;49.880;8.648;2023-02-18T05:59:24;5.90;;;4.15;;
29240;SDS011;16268;49.880;8.648;2023-02-18T06:01:49;5.65;;;4.05;;
29240;SDS011;16268;49.880;8.648;2023-02-18T06:04:15;6.15;;;4.10;;
29240;SDS011;16268;49.880;8.648;2023-02-18T06:06:41;7.40;;;3.75;;
29240;SDS011;16268;49.880;8.648;2023-02-18T06:09:07;5.28;;;3.80;;
29240;SDS011;16268;49.880;8.648;2023-02-18T06:11:32;5.18;;;3.53;;
29240;SDS011;16268;49.880;8.648;2023-02-18T06:13:58;6.60;;;3.72;;
29240;SDS011;16268;49.880;8.648;2023-02-18T06:16:24;7.18;;;3.70;;
29240;SDS011;16268;49.880;8.648;2023-02-18T06:18:50;5.97;;;3.53;;
29240;SDS011;16268;49.880;8.648;2023-02-18T06:21:15;5.78;;;3.50;;
29240;SDS011;16268;49.880;8.648;2023-02-18T06:23:41;5.60;;;3.40;;
29240;SDS011;16268;49.880;8.648;2023-02-18T06:26:07;5.45;;;3.47;;
29240;SDS011;16268;49.880;8.648;2023-02-18T06:28:32;7.20;;;3.72;;
29240;SDS011;16268;49.880;8.648;2023-02-18T06:30:58;4.43;;;3.33;;
29240;SDS011;16268;49.880;8.648;2023-02-18T06:33:24;6.55;;;3.72;;
29240;SDS011;16268;49.880;8.648;2023-02-18T06:35:53;5.47;;;3.70;;
29240;SDS011;16268;49.880;8.648;2023-02-18T06:38:20;6.13;;;3.60;;
29240;SDS011;16268;49.880;8.648;2023-02-18T06:40:46;6.20;;;3.88;;
29240;SDS011;16268;49.880;8.648;2023-02-18T06:43:11;6.22;;;3.63;;
29240;SDS011;16268;49.880;8.648;2023-02-18T06:45:37;6.22;;;3.75;;
29240;SDS011;16268;49.880;8.648;2023-02-18T06:48:04;6.85;;;4.05;;
29240;SDS011;16268;49.880;8.648;2023-02-18T06:50:29;6.63;;;4.05;;
29240;SDS011;16268;49.880;8.648;2023-02-18T06:52:55;6.55;;;3.55;;
29240;SDS011;16268;49.880;8.648;2023-02-18T06:55:20;7.00;;;4.20;;
29240;SDS011;16268;49.880;8.648;2023-02-18T06:57:46;8.30;;;4.47;;
29240;SDS011;16268;49.880;8.648;2023-02-18T07:00:12;6.50;;;4.15;;
29240;SDS011;16268;49.880;8.648;2023-02-18T07:02:37;7.95;;;4.13;;
29240;SDS011;16268;49.880;8.648;2023-02-18T07:05:03;5.90;;;4.15;;
29240;SDS011;16268;49.880;8.648;2023-02-18T07:07:30;5.78;;;4.03;;
29240;SDS011;16268;49.880;8.648;2023-02-18T07:09:55;7.30;;;4.25;;
29240;SDS011;16268;49.880;8.648;2023-02-18T07:12:21;7.28;;;4.30;;
29240;SDS011;16268;49.880;8.648;2023-02-18T07:14:46;7.47;;;4.20;;
29240;SDS011;16268;49.880;8.648;2023-02-18T07:17:12;7.07;;;4.53;;
29240;SDS011;16268;49.880;8.648;2023-02-18T07:19:38;6.30;;;4.15;;
29240;SDS011;16268;49.880;8.648;2023-02-18T07:22:04;7.10;;;4.13;;
29240;SDS011;16268;49.880;8.648;2023-02-18T07:24:30;6.00;;;4.20;;
29240;SDS011;16268;49.880;8.648;2023-02-18T07:26:55;5.30;;;3.72;;
29240;SDS011;16268;49.880;8.648;2023-02-18T07:29:21;8.65;;;4.68;;
29240;SDS011;16268;49.880;8.648;2023-02-18T07:31:46;8.10;;;4.38;;
29240;SDS011;16268;49.880;8.648;2023-02-18T07:34:12;7.78;;;4.28;;
29240;SDS011;16268;49.880;8.648;2023-02-18T07:36:37;8.60;;;4.53;;
29240;SDS011;16268;49.880;8.648;2023-02-18T07:39:03;7.90;;;4.57;;
29240;SDS011;16268;49.880;8.648;2023-02-18T07:41:29;7.80;;;4.88;;
29240;SDS011;16268;49.880;8.648;2023-02-18T07:43:54;8.50;;;5.00;;
29240;SDS011;16268;49.880;8.648;2023-02-18T07:46:20;7.45;;;5.22;;
29240;SDS011;16268;49.880;8.648;2023-02-18T07:48:46;8.27;;;5.53;;
29240;SDS011;16268;49.880;8.648;2023-02-18T07:51:11;8.10;;;5.10;;
29240;SDS011;16268;49.880;8.648;2023-02-18T07:53:38;7.78;;;5.28;;
29240;SDS011;16268;49.880;8.648;2023-02-18T07:56:04;8.93;;;5.63;;
29240;SDS011;16268;49.880;8.648;2023-02-18T07:58:34;7.78;;;5.07;;
29240;SDS011;16268;49.880;8.648;2023-02-18T08:01:05;8.43;;;5.30;;
29240;SDS011;16268;49.880;8.648;2023-02-18T08:03:35;8.75;;;5.18;;
29240;SDS011;16268;49.880;8.648;2023-02-18T08:06:01;7.20;;;4.80;;
29240;SDS011;16268;49.880;8.648;2023-02-18T08:08:29;7.00;;;4.32;;
29240;SDS011;16268;49.880;8.648;2023-02-18T08:10:57;6.75;;;4.28;;
29240;SDS011;16268;49.880;8.648;2023-02-18T08:13:23;7.53;;;4.68;;
29240;SDS011;16268;49.880;8.648;2023-02-18T08:15:49;8.88;;;5.25;;
29240;SDS011;16268;49.880;8.648;2023-02-18T08:18:19;5.72;;;4.60;;
29240;SDS011;16268;49.880;8.648;2023-02-18T08:20:46;6.60;;;4.75;;
29240;SDS011;16268;49.880;8.648;2023-02-18T08:23:13;7.40;;;4.60;;
29240;SDS011;16268;49.880;8.648;2023-02-18T08:25:40;7.03;;;4.35;;
29240;SDS011;16268;49.880;8.648;2023-02-18T08:28:10;7.43;;;4.20;;
29240;SDS011;16268;49.880;8.648;2023-02-18T08:30:35;8.45;;;4.70;;
29240;SDS011;16268;49.880;8.648;2023-02-18T08:33:01;7.60;;;3.90;;
29240;SDS011;16268;49.880;8.648;2023-02-18T08:35:27;9.43;;;3.95;;
29240;SDS011;16268;49.880;8.648;2023-02-18T08:37:52;5.88;;;3.80;;
29240;SDS011;16268;49.880;8.648;2023-02-18T08:40:18;5.93;;;3.63;;
29240;SDS011;16268;49.880;8.648;2023-02-18T08:42:44;5.63;;;3.33;;
29240;SDS011;16268;49.880;8.648;2023-02-18T08:45:09;6.10;;;3.50;;
29240;SDS011;16268;49.880;8.648;2023-02-18T08:47:34;6.30;;;3.08;;
29240;SDS011;16268;49.880;8.648;2023-02-18T08:50:00;5.00;;;3.20;;
29240;SDS011;16268;49.880;8.648;2023-02-18T08:52:26;5.47;;;3.25;;
29240;SDS011;16268;49.880;8.648;2023-02-18T08:54:51;5.45;;;3.15;;
29240;SDS011;16268;49.880;8.648;2023-02-18T08:57:17;5.97;;;3.17;;
29240;SDS011;16268;49.880;8.648;2023-02-18T08:59:42;5.55;;;2.67;;
29240;SDS011;16268;49.880;8.648;2023-02-18T09:02:09;4.78;;;2.65;;
29240;SDS011;16268;49.880;8.648;2023-02-18T09:04:37;4.95;;;2.83;;
29240;SDS011;16268;49.880;8.648;2023-02-18T09:07:03;5.07;;;2.38;;
29240;SDS011;16268;49.880;8.648;2023-02-18T09:09:28;5.13;;;2.20;;
29240;SDS011;16268;49.880;8.648;2023-02-18T09:11:54;6.50;;;2.30;;
29240;SDS011;16268;49.880;8.648;2023-02-18T09:14:19;3.67;;;2.05;;
29240;SDS011;16268;49.880;8.648;2023-02-18T09:16:45;4.32;;;2.03;;
29240;SDS011;16268;49.880;8.648;2023-02-18T09:19:11;4.53;;;2.10;;
29240;SDS011;16268;49.880;8.648;2023-02-18T09:21:36;4.90;;;2.50;;
29240;SDS011;16268;49.880;8.648;2023-02-18T09:24:02;4.10;;;1.98;;
29240;SDS011;16268;49.880;8.648;2023-02-18T09:26:28;6.25;;;2.58;;
29240;SDS011;16268;49.880;8.648;2023-02-18T09:28:54;3.80;;;2.35;;
29240;SDS011;16268;49.880;8.648;2023-02-18T09:31:21;5.38;;;2.30;;
29240;SDS011;16268;49.880;8.648;2023-02-18T09:33:49;7.00;;;2.75;;
29240;SDS011;16268;49.880;8.648;2023-02-18T09:36:17;6.35;;;2.75;;
29240;SDS011;16268;49.880;8.648;2023-02-18T09:38:44;6.35;;;2.72;;
29240;SDS011;16268;49.880;8.648;2023-02-18T09:41:20;5.53;;;2.60;;
29240;SDS011;16268;49.880;8.648;2023-02-18T09:44:03;4.60;;;2.70;;
29240;SDS011;16268;49.880;8.648;2023-02-18T09:46:35;5.45;;;2.65;;
29240;SDS011;16268;49.880;8.648;2023-02-18T09:49:11;5.28;;;2.80;;
29240;SDS011;16268;49.880;8.648;2023-02-18T09:51:50;5.10;;;2.30;;
29240;SDS011;16268;49.880;8.648;2023-02-18T09:54:17;5.22;;;2.70;;
29240;SDS011;16268;49.880;8.648;2023-02-18T09:56:44;5.68;;;2.30;;
29240;SDS011;16268;49.880;8.648;2023-02-18T09:59:13;6.53;;;2.47;;
29240;SDS011;16268;49.880;8.648;2023-02-18T10:01:41;5.97;;;2.63;;
29240;SDS011;16268;49.880;8.648;2023-02-18T10:04:16;5.10;;;2.75;;
29240;SDS011;16268;49.880;8.648;2023-02-18T10:06:56;6.40;;;2.90;;
29240;SDS011;16268;49.880;8.648;2023-02-18T10:09:24;6.45;;;2.60;;
29240;SDS011;16268;49.880;8.648;2023-02-18T10:12:20;5.60;;;2.92;;
29240;SDS011;16268;49.880;8.648;2023-02-18T10:14:47;9.40;;;2.70;;
29240;SDS011;16268;49.880;8.648;2023-02-18T10:17:18;5.05;;;2.50;;
29240;SDS011;16268;49.880;8.648;2023-02-18T10:19:46;3.78;;;2.22;;
29240;SDS011;16268;49.880;8.648;2023-02-18T10:22:13;7.20;;;2.75;;
29240;SDS011;16268;49.880;8.648;2023-02-18T10:24:44;5.35;;;2.53;;
29240;SDS011;16268;49.880;8.648;2023-02-18T10:27:18;5.05;;;2.20;;
29240;SDS011;16268;49.880;8.648;2023-02-18T10:29:48;3.55;;;1.80;;
29240;SDS011;16268;49.880;8.648;2023-02-18T10:32:32;4.97;;;2.13;;
29240;SDS011;16268;49.880;8.648;2023-02-18T10:35:03;3.75;;;1.80;;
29240;SDS011;16268;49.880;8.648;2023-02-18T10:38:07;4.20;;;2.05;;
29240;SDS011;16268;49.880;8.648;2023-02-18T10:51:54;4.53;;;1.63;;
29240;SDS011;16268;49.880;8.648;2023-02-18T10:54:25;5.55;;;2.20;;
29240;SDS011;16268;49.880;8.648;2023-02-18T10:56:52;5.60;;;1.63;;
29240;SDS011;16268;49.880;8.648;2023-02-18T10:59:25;4.47;;;1.67;;
29240;SDS011;16268;49.880;8.648;2023-02-18T11:04:22;4.85;;;1.60;;
29240;SDS011;16268;49.880;8.648;2023-02-18T11:07:01;3.13;;;1.40;;
29240;SDS011;16268;49.880;8.648;2023-02-18T11:12:13;5.00;;;1.65;;
29240;SDS011;16268;49.880;8.648;2023-02-18T11:15:03;2.17;;;1.10;;
29240;SDS011;16268;49.880;8.648;2023-02-18T11:17:38;3.33;;;1.30;;
29240;SDS011;16268;49.880;8.648;2023-02-18T11:22:50;3.17;;;0.90;;
29240;SDS011;16268;49.880;8.648;2023-02-18T11:27:51;3.20;;;1.30;;
29240;SDS011;16268;49.880;8.648;2023-02-18T11:32:47;5.32;;;1.70;;
29240;SDS011;16268;49.880;8.648;2023-02-18T11:35:16;5.25;;;1.35;;
29240;SDS011;16268;49.880;8.648;2023-02-18T11:37:44;2.70;;;1.30;;
29240;SDS011;16268;49.880;8.648;2023-02-18T11:40:20;3.78;;;1.40;;
29240;SDS011;16268;49.880;8.648;2023-02-18T11:43:11;3.88;;;1.60;;
29240;SDS011;16268;49.880;8.648;2023-02-18T11:45:38;2.83;;;1.35;;
29240;SDS011;16268;49.880;8.648;2023-02-18T11:48:13;4.45;;;1.77;;
29240;SDS011;16268;49.880;8.648;2023-02-18T11:50:41;3.67;;;1.48;;
29240;SDS011;16268;49.880;8.648;2023-02-18T11:55:58;6.80;;;1.40;;
29240;SDS011;16268;49.880;8.648;2023-02-18T11:58:31;4.72;;;1.50;;
29240;SDS011;16268;49.880;8.648;2023-02-18T12:01:12;6.38;;;1.45;;
29240;SDS011;16268;49.880;8.648;2023-02-18T12:09:48;3.88;;;1.38;;
29240;SDS011;16268;49.880;8.648;2023-02-18T12:12:30;4.25;;;1.00;;
29240;SDS011;16268;49.880;8.648;2023-02-18T12:15:14;2.67;;;1.05;;
29240;SDS011;16268;49.880;8.648;2023-02-18T12:17:48;4.97;;;1.33;;
29240;SDS011;16268;49.880;8.648;2023-02-18T12:21:00;3.50;;;1.48;;
29240;SDS011;16268;49.880;8.648;2023-02-18T12:26:09;5.60;;;1.30;;
29240;SDS011;16268;49.880;8.648;2023-02-18T12:43:20;3.08;;;1.20;;
29240;SDS011;16268;49.880;8.648;2023-02-18T12:54:00;7.43;;;1.52;;
29240;SDS011;16268;49.880;8.648;2023-02-18T12:56:47;4.75;;;1.75;;
29240;SDS011;16268;49.880;8.648;2023-02-18T12:59:39;5.35;;;1.60;;
29240;SDS011;16268;49.880;8.648;2023-02-18T13:02:29;7.97;;;2.15;;
29240;SDS011;16268;49.880;8.648;2023-02-18T13:05:30;4.10;;;1.50;;
29240;SDS011;16268;49.880;8.648;2023-02-18T13:08:15;8.60;;;1.90;;
29240;SDS011;16268;49.880;8.648;2023-02-18T13:16:40;4.68;;;1.50;;
29240;SDS011;16268;49.880;8.648;2023-02-18T13:19:15;5.18;;;1.80;;
29240;SDS011;16268;49.880;8.648;2023-02-18T13:21:45;4.40;;;1.55;;
29240;SDS011;16268;49.880;8.648;2023-02-18T13:24:35;4.63;;;1.42;;
29240;SDS011;16268;49.880;8.648;2023-02-18T13:29:45;3.83;;;1.40;;
29240;SDS011;16268;49.880;8.648;2023-02-18T13:32:28;4.43;;;1.75;;
29240;SDS011;16268;49.880;8.648;2023-02-18T13:35:17;3.88;;;1.58;;
29240;SDS011;16268;49.880;8.648;2023-02-18T13:38:11;3.47;;;1.33;;
29240;SDS011;16268;49.880;8.648;2023-02-18T13:40:52;3.47;;;1.33;;
29240;SDS011;16268;49.880;8.648;2023-02-18T13:48:33;3.65;;;1.20;;
29240;SDS011;16268;49.880;8.648;2023-02-18T13:51:28;4.85;;;1.40;;
29240;SDS011;16268;49.880;8.648;2023-02-18T13:54:01;4.07;;;1.15;;
29240;SDS011;16268;49.880;8.648;2023-02-18T13:56:43;4.45;;;1.38;;
29240;SDS011;16268;49.880;8.648;2023-02-18T14:01:41;3.10;;;1.30;;
29240;SDS011;16268;49.880;8.648;2023-02-18T14:09:49;3.83;;;1.40;;
29240;SDS011;16268;49.880;8.648;2023-02-18T14:12:35;5.10;;;1.65;;
29240;SDS011;16268;49.880;8.648;2023-02-18T14:22:56;4.10;;;1.30;;
29240;SDS011;16268;49.880;8.648;2023-02-18T14:25:33;4.82;;;1.35;;
29240;SDS011;16268;49.880;8.648;2023-02-18T14:28:34;6.40;;;1.60;;
29240;SDS011;16268;49.880;8.648;2023-02-18T14:33:36;4.43;;;1.48;;
29240;SDS011;16268;49.880;8.648;2023-02-18T14:36:28;3.72;;;1.20;;
29240;SDS011;16268;49.880;8.648;2023-02-18T14:50:30;5.75;;;1.30;;
29240;SDS011;16268;49.880;8.648;2023-02-18T14:53:02;3.75;;;1.40;;
29240;SDS011;16268;49.880;8.648;2023-02-18T14:55:37;4.65;;;1.67;;
29240;SDS011;16268;49.880;8.648;2023-02-18T14:58:12;2.85;;;1.20;;
29240;SDS011;16268;49.880;8.648;2023-02-18T15:00:43;3.97;;;1.50;;
29240;SDS011;16268;49.880;8.648;2023-02-18T15:03:14;5.32;;;1.40;;
29240;SDS011;16268;49.880;8.648;2023-02-18T15:05:41;4.75;;;1.38;;
29240;SDS011;16268;49.880;8.648;2023-02-18T15:08:15;4.68;;;1.48;;
29240;SDS011;16268;49.880;8.648;2023-02-18T15:10:47;4.70;;;1.50;;
29240;SDS011;16268;49.880;8.648;2023-02-18T15:15:43;5.65;;;1.48;;
29240;SDS011;16268;49.880;8.648;2023-02-18T15:18:17;4.83;;;1.67;;
29240;SDS011;16268;49.880;8.648;2023-02-18T15:20:47;4.85;;;1.40;;
29240;SDS011;16268;49.880;8.648;2023-02-18T15:23:14;3.25;;;1.30;;
29240;SDS011;16268;49.880;8.648;2023-02-18T15:25:42;5.20;;;1.38;;
29240;SDS011;16268;49.880;8.648;2023-02-18T15:28:25;3.53;;;1.35;;
29240;SDS011;16268;49.880;8.648;2023-02-18T15:31:02;4.40;;;1.60;;
29240;SDS011;16268;49.880;8.648;2023-02-18T15:33:28;3.85;;;1.30;;
29240;SDS011;16268;49.880;8.648;2023-02-18T15:36:01;4.95;;;1.50;;
29240;SDS011;16268;49.880;8.648;2023-02-18T15:38:31;3.55;;;1.23;;
29240;SDS011;16268;49.880;8.648;2023-02-18T15:40:57;6.03;;;1.67;;
29240;SDS011;16268;49.880;8.648;2023-02-18T15:43:24;4.20;;;1.50;;
29240;SDS011;16268;49.880;8.648;2023-02-18T15:48:37;5.07;;;1.40;;
29240;SDS011;16268;49.880;8.648;2023-02-18T15:51:10;5.82;;;1.60;;
29240;SDS011;16268;49.880;8.648;2023-02-18T15:53:37;3.53;;;1.30;;
29240;SDS011;16268;49.880;8.648;2023-02-18T15:56:12;4.20;;;1.48;;
29240;SDS011;16268;49.880;8.648;2023-02-18T15:58:42;6.68;;;1.30;;
29240;SDS011;16268;49.880;8.648;2023-02-18T16:01:22;5.18;;;1.73;;
29240;SDS011;16268;49.880;8.648;2023-02-18T16:03:51;3.42;;;1.08;;
29240;SDS011;16268;49.880;8.648;2023-02-18T16:06:34;3.70;;;1.45;;
29240;SDS011;16268;49.880;8.648;2023-02-18T16:09:12;4.88;;;1.50;;
29240;SDS011;16268;49.880;8.648;2023-02-18T16:11:43;3.35;;;1.40;;
29240;SDS011;16268;49.880;8.648;2023-02-18T16:14:22;3.83;;;1.30;;
29240;SDS011;16268;49.880;8.648;2023-02-18T16:19:52;4.82;;;1.48;;
29240;SDS011;16268;49.880;8.648;2023-02-18T16:27:37;3.92;;;1.70;;
29240;SDS011;16268;49.880;8.648;2023-02-18T16:30:40;5.68;;;1.80;;
29240;SDS011;16268;49.880;8.648;2023-02-18T16:33:07;6.32;;;1.63;;
29240;SDS011;16268;49.880;8.648;2023-02-18T16:35:33;3.65;;;1.63;;
29240;SDS011;16268;49.880;8.648;2023-02-18T16:37:59;7.07;;;1.90;;
29240;SDS011;16268;49.880;8.648;2023-02-18T16:45:23;6.05;;;1.83;;
29240;SDS011;16268;49.880;8.648;2023-02-18T16:47:55;3.75;;;1.45;;
29240;SDS011;16268;49.880;8.648;2023-02-18T16:50:21;4.43;;;1.83;;
29240;SDS011;16268;49.880;8.648;2023-02-18T16:52:47;6.03;;;1.90;;
29240;SDS011;16268;49.880;8.648;2023-02-18T16:55:17;5.47;;;1.75;;
29240;SDS011;16268;49.880;8.648;2023-02-18T16:57:44;5.53;;;1.70;;
29240;SDS011;16268;49.880;8.648;2023-02-18T17:00:11;5.38;;;1.83;;
29240;SDS011;16268;49.880;8.648;2023-02-18T17:02:37;4.32;;;2.10;;
29240;SDS011;16268;49.880;8.648;2023-02-18T17:05:04;4.28;;;1.80;;
29240;SDS011;16268;49.880;8.648;2023-02-18T17:07:30;4.45;;;1.60;;
29240;SDS011;16268;49.880;8.648;2023-02-18T17:09:58;5.65;;;2.10;;
29240;SDS011;16268;49.880;8.648;2023-02-18T17:12:23;5.38;;;2.00;;
29240;SDS011;16268;49.880;8.648;2023-02-18T17:14:49;6.03;;;2.08;;
29240;SDS011;16268;49.880;8.648;2023-02-18T17:17:16;6.20;;;2.05;;
29240;SDS011;16268;49.880;8.648;2023-02-18T17:19:46;5.75;;;2.00;;
29240;SDS011;16268;49.880;8.648;2023-02-18T17:22:12;6.57;;;2.40;;
29240;SDS011;16268;49.880;8.648;2023-02-18T17:24:38;7.70;;;2.15;;
29240;SDS011;16268;49.880;8.648;2023-02-18T17:27:04;6.53;;;2.10;;
29240;SDS011;16268;49.880;8.648;2023-02-18T17:29:30;5.53;;;1.90;;
29240;SDS011;16268;49.880;8.648;2023-02-18T17:31:56;5.35;;;1.90;;
29240;SDS011;16268;49.880;8.648;2023-02-18T17:34:26;4.85;;;2.10;;
29240;SDS011;16268;49.880;8.648;2023-02-18T17:36:55;4.72;;;2.10;;
29240;SDS011;16268;49.880;8.648;2023-02-18T17:39:21;9.93;;;2.63;;
29240;SDS011;16268;49.880;8.648;2023-02-18T17:41:48;5.70;;;2.00;;
29240;SDS011;16268;49.880;8.648;2023-02-18T17:44:15;5.25;;;2.28;;
29240;SDS011;16268;49.880;8.648;2023-02-18T17:46:42;8.52;;;2.30;;